PWSweather.com
Personal Weather Stations
Station Observations
WATERF01
WaterfordIE

WaterfordIE

Lat: 52.2412507, Lon: -7.1414691

Elevation: 65

Station Type: Davis Vantage Vue

www.waterfordweather.com

High Low Average
Temperature 54.7°F12.6°C 51.2°F10.7°C 52.5°F11.4°C
Dew Point 54.0°F12.2°C 48.6°F9.2°C 51.0°F10.6°C
Winds 18.4 mph 29.6 kmh 5.8 mph 9.3 kmh 12.0 mph SW19.3 kmh SW
Wind Gusts 35.7 mph57.5 kmh 8.1 mph13.0 kmh 20.0 mph32.2 kmh
Humidity 98% 89% 94%
Pressure 30.38 in1028.8 mb 29.64 in1003.7 mb -
Precipitation 0.50 in12.7 mm - -
Hour Temp Dew Point Humidity Winds Wind Gusts Pressure Precip Precip Rate Daily Precip Total
12:00 AM 51.3°F10.7°C 48.8°F9.3°C 91% 9.2 mph SW14.8 kmh SW 15.0 mph24.1 kmh 30.38 in1028.8 mb - 0.00 in0.0 mm 0.00 in0.0 mm
12:10 AM 51.3°F10.7°C 48.8°F9.3°C 91% 6.9 mph WSW11.1 kmh WSW 15.0 mph24.1 kmh 30.37 in1028.4 mb - 0.00 in0.0 mm 0.00 in0.0 mm
12:20 AM 51.3°F10.7°C 48.8°F9.3°C 91% 5.8 mph W9.3 kmh W 11.5 mph18.5 kmh 30.37 in1028.4 mb - 0.00 in0.0 mm 0.00 in0.0 mm
12:30 AM 51.3°F10.7°C 48.8°F9.3°C 91% 6.9 mph W11.1 kmh W 13.8 mph22.2 kmh 30.37 in1028.4 mb - 0.00 in0.0 mm 0.00 in0.0 mm
12:40 AM 51.4°F10.8°C 48.6°F9.2°C 90% 6.9 mph NNW11.1 kmh NNW 8.1 mph13.0 kmh 30.37 in1028.4 mb - 0.00 in0.0 mm 0.00 in0.0 mm
12:50 AM 51.6°F10.9°C 48.7°F9.3°C 90% 6.9 mph SW11.1 kmh SW 12.7 mph20.4 kmh 30.36 in1028.1 mb - 0.00 in0.0 mm 0.00 in0.0 mm
01:00 AM 51.6°F10.9°C 48.8°F9.3°C 90% 5.8 mph SSW9.3 kmh SSW 9.2 mph14.8 kmh 30.36 in1028.1 mb - 0.00 in0.0 mm 0.00 in0.0 mm
01:10 AM 51.7°F10.9°C 48.9°F9.4°C 90% 8.1 mph W13.0 kmh W 16.1 mph25.9 kmh 30.36 in1028.1 mb - 0.00 in0.0 mm 0.00 in0.0 mm
01:20 AM 51.8°F11.0°C 49.3°F9.6°C 91% 6.9 mph WSW11.1 kmh WSW 11.5 mph18.5 kmh 30.35 in1027.8 mb - 0.00 in0.0 mm 0.00 in0.0 mm
01:30 AM 51.7°F10.9°C 49.1°F9.5°C 91% 6.9 mph SW11.1 kmh SW 12.7 mph20.4 kmh 30.35 in1027.8 mb - 0.00 in0.0 mm 0.00 in0.0 mm
01:40 AM 51.6°F10.9°C 48.8°F9.3°C 90% 5.8 mph WSW9.3 kmh WSW 11.5 mph18.5 kmh 30.34 in1027.4 mb - 0.00 in0.0 mm 0.00 in0.0 mm
01:50 AM 51.7°F10.9°C 48.9°F9.4°C 90% 6.9 mph SE11.1 kmh SE 12.7 mph20.4 kmh 30.34 in1027.4 mb - 0.00 in0.0 mm 0.00 in0.0 mm
02:00 AM 51.8°F11.0°C 48.7°F9.3°C 89% 6.9 mph WSW11.1 kmh WSW 15.0 mph24.1 kmh 30.34 in1027.4 mb - 0.00 in0.0 mm 0.00 in0.0 mm
02:10 AM 51.9°F11.1°C 48.8°F9.3°C 89% 8.1 mph SW13.0 kmh SW 13.8 mph22.2 kmh 30.33 in1027.1 mb - 0.00 in0.0 mm 0.00 in0.0 mm
02:20 AM 52.0°F11.1°C 49.2°F9.6°C 90% 6.9 mph WSW11.1 kmh WSW 16.1 mph25.9 kmh 30.33 in1027.1 mb - 0.00 in0.0 mm 0.00 in0.0 mm
02:30 AM 52.0°F11.1°C 49.1°F9.5°C 90% 8.1 mph SW13.0 kmh SW 11.5 mph18.5 kmh 30.32 in1026.8 mb - 0.00 in0.0 mm 0.00 in0.0 mm
02:40 AM 51.9°F11.1°C 49.1°F9.5°C 90% 8.1 mph SSW13.0 kmh SSW 12.7 mph20.4 kmh 30.32 in1026.8 mb - 0.00 in0.0 mm 0.00 in0.0 mm
02:50 AM 51.9°F11.1°C 49.1°F9.5°C 90% 9.2 mph W14.8 kmh W 13.8 mph22.2 kmh 30.32 in1026.8 mb - 0.00 in0.0 mm 0.00 in0.0 mm
03:00 AM 52.0°F11.1°C 49.2°F9.6°C 90% 6.9 mph SW11.1 kmh SW 9.2 mph14.8 kmh 30.32 in1026.8 mb - 0.00 in0.0 mm 0.00 in0.0 mm
03:10 AM 52.0°F11.1°C 49.5°F9.7°C 91% 8.1 mph SW13.0 kmh SW 15.0 mph24.1 kmh 30.31 in1026.4 mb - 0.00 in0.0 mm 0.00 in0.0 mm
03:20 AM 52.1°F11.2°C 49.6°F9.8°C 91% 8.1 mph SW13.0 kmh SW 11.5 mph18.5 kmh 30.31 in1026.4 mb - 0.00 in0.0 mm 0.00 in0.0 mm
03:30 AM 52.1°F11.2°C 49.6°F9.8°C 91% 9.2 mph SW14.8 kmh SW 13.8 mph22.2 kmh 30.30 in1026.1 mb - 0.00 in0.0 mm 0.00 in0.0 mm
03:40 AM 52.1°F11.2°C 49.8°F9.9°C 92% 9.2 mph SW14.8 kmh SW 13.8 mph22.2 kmh 30.30 in1026.1 mb - 0.00 in0.0 mm 0.00 in0.0 mm
03:50 AM 52.0°F11.1°C 49.7°F9.8°C 92% 8.1 mph SSW13.0 kmh SSW 12.7 mph20.4 kmh 30.29 in1025.7 mb - 0.00 in0.0 mm 0.00 in0.0 mm
04:00 AM 52.0°F11.1°C 49.7°F9.8°C 92% 6.9 mph WSW11.1 kmh WSW 13.8 mph22.2 kmh 30.29 in1025.7 mb - 0.00 in0.0 mm 0.00 in0.0 mm
04:10 AM 52.0°F11.1°C 49.5°F9.7°C 91% 11.5 mph SW18.5 kmh SW 13.8 mph22.2 kmh 30.28 in1025.4 mb - 0.00 in0.0 mm 0.00 in0.0 mm
04:20 AM 52.1°F11.2°C 49.6°F9.8°C 91% 10.4 mph W16.7 kmh W 15.0 mph24.1 kmh 30.27 in1025.1 mb - 0.00 in0.0 mm 0.00 in0.0 mm
04:30 AM 52.2°F11.2°C 49.4°F9.7°C 90% 8.1 mph WSW13.0 kmh WSW 12.7 mph20.4 kmh 30.27 in1025.1 mb - 0.00 in0.0 mm 0.00 in0.0 mm
04:40 AM 52.2°F11.2°C 49.1°F9.5°C 89% 9.2 mph WSW14.8 kmh WSW 12.7 mph20.4 kmh 30.27 in1025.1 mb - 0.00 in0.0 mm 0.00 in0.0 mm
04:50 AM 52.2°F11.2°C 49.1°F9.5°C 89% 12.7 mph SW20.4 kmh SW 16.1 mph25.9 kmh 30.26 in1024.7 mb - 0.00 in0.0 mm 0.00 in0.0 mm
05:00 AM 52.2°F11.2°C 49.1°F9.5°C 89% 9.2 mph WSW14.8 kmh WSW 16.1 mph25.9 kmh 30.26 in1024.7 mb - 0.00 in0.0 mm 0.00 in0.0 mm
05:10 AM 52.3°F11.3°C 49.1°F9.5°C 89% 9.2 mph WSW14.8 kmh WSW 16.1 mph25.9 kmh 30.26 in1024.7 mb - 0.00 in0.0 mm 0.00 in0.0 mm
05:20 AM 52.2°F11.2°C 49.4°F9.7°C 90% 12.7 mph SSW20.4 kmh SSW 19.6 mph31.5 kmh 30.25 in1024.4 mb - 0.00 in0.0 mm 0.00 in0.0 mm
05:30 AM 52.0°F11.1°C 49.5°F9.7°C 91% 11.5 mph SW18.5 kmh SW 20.7 mph33.3 kmh 30.25 in1024.4 mb - 0.00 in0.0 mm 0.00 in0.0 mm
05:40 AM 51.9°F11.1°C 49.4°F9.7°C 91% 13.8 mph WSW22.2 kmh WSW 19.6 mph31.5 kmh 30.24 in1024.0 mb - 0.00 in0.0 mm 0.00 in0.0 mm
05:50 AM 52.1°F11.2°C 49.6°F9.8°C 91% 10.4 mph WSW16.7 kmh WSW 18.4 mph29.6 kmh 30.24 in1024.0 mb - 0.00 in0.0 mm 0.00 in0.0 mm
06:00 AM 52.3°F11.3°C 49.8°F9.9°C 91% 9.2 mph WSW14.8 kmh WSW 16.1 mph25.9 kmh 30.24 in1024.0 mb - 0.00 in0.0 mm 0.00 in0.0 mm
06:10 AM 52.4°F11.3°C 50.1°F10.1°C 92% 10.4 mph SW16.7 kmh SW 16.1 mph25.9 kmh 30.24 in1024.0 mb - 0.00 in0.0 mm 0.00 in0.0 mm
06:20 AM 52.1°F11.2°C 49.9°F9.9°C 92% 13.8 mph SW22.2 kmh SW 21.9 mph35.2 kmh 30.23 in1023.7 mb - 0.00 in0.0 mm 0.00 in0.0 mm
06:30 AM 52.1°F11.2°C 50.1°F10.1°C 93% 13.8 mph NW22.2 kmh NW 19.6 mph31.5 kmh 30.23 in1023.7 mb - 0.00 in0.0 mm 0.00 in0.0 mm
06:40 AM 52.1°F11.2°C 50.2°F10.1°C 93% 9.2 mph WNW14.8 kmh WNW 18.4 mph29.6 kmh 30.23 in1023.7 mb - 0.00 in0.0 mm 0.00 in0.0 mm
06:50 AM 52.3°F11.3°C 50.3°F10.2°C 93% 10.4 mph SW16.7 kmh SW 16.1 mph25.9 kmh 30.23 in1023.7 mb - 0.00 in0.0 mm 0.00 in0.0 mm
07:00 AM 52.3°F11.3°C 50.3°F10.2°C 93% 10.4 mph SW16.7 kmh SW 18.4 mph29.6 kmh 30.22 in1023.4 mb - 0.00 in0.0 mm 0.00 in0.0 mm
07:10 AM 52.2°F11.2°C 50.2°F10.1°C 93% 11.5 mph SW18.5 kmh SW 18.4 mph29.6 kmh 30.21 in1023.0 mb - 0.00 in0.0 mm 0.00 in0.0 mm
07:20 AM 52.2°F11.2°C 50.2°F10.1°C 93% 13.8 mph SW22.2 kmh SW 19.6 mph31.5 kmh 30.21 in1023.0 mb - 0.00 in0.0 mm 0.00 in0.0 mm
07:30 AM 52.1°F11.2°C 50.1°F10.1°C 93% 10.4 mph S16.7 kmh S 19.6 mph31.5 kmh 30.20 in1022.7 mb - 0.00 in0.0 mm 0.00 in0.0 mm
07:40 AM 52.0°F11.1°C 49.7°F9.8°C 92% 6.9 mph WSW11.1 kmh WSW 11.5 mph18.5 kmh 30.21 in1023.0 mb - 0.00 in0.0 mm 0.00 in0.0 mm
07:50 AM 52.0°F11.1°C 49.7°F9.8°C 92% 9.2 mph SW14.8 kmh SW 16.1 mph25.9 kmh 30.20 in1022.7 mb - 0.00 in0.0 mm 0.00 in0.0 mm
08:00 AM 52.0°F11.1°C 50.1°F10.1°C 93% 8.1 mph SW13.0 kmh SW 16.1 mph25.9 kmh 30.19 in1022.4 mb - 0.00 in0.0 mm 0.00 in0.0 mm
08:10 AM 52.1°F11.2°C 50.1°F10.1°C 93% 10.4 mph SW16.7 kmh SW 19.6 mph31.5 kmh 30.19 in1022.4 mb - 0.00 in0.0 mm 0.00 in0.0 mm
08:20 AM 52.2°F11.2°C 50.2°F10.1°C 93% 12.7 mph SW20.4 kmh SW 25.3 mph40.7 kmh 30.18 in1022.0 mb - 0.00 in0.0 mm 0.00 in0.0 mm
08:30 AM 52.2°F11.2°C 50.2°F10.1°C 93% 10.4 mph SW16.7 kmh SW 13.8 mph22.2 kmh 30.18 in1022.0 mb - 0.00 in0.0 mm 0.00 in0.0 mm
08:40 AM 52.2°F11.2°C 50.2°F10.1°C 93% 8.1 mph SW13.0 kmh SW 21.9 mph35.2 kmh 30.18 in1022.0 mb - 0.00 in0.0 mm 0.00 in0.0 mm
08:50 AM 52.2°F11.2°C 49.9°F9.9°C 92% 8.1 mph SW13.0 kmh SW 20.7 mph33.3 kmh 30.18 in1022.0 mb - 0.00 in0.0 mm 0.00 in0.0 mm
09:00 AM 52.1°F11.2°C 49.8°F9.9°C 92% 9.2 mph SW14.8 kmh SW 15.0 mph24.1 kmh 30.17 in1021.7 mb - 0.00 in0.0 mm 0.00 in0.0 mm
09:10 AM 52.0°F11.1°C 49.8°F9.9°C 92% 10.4 mph SW16.7 kmh SW 15.0 mph24.1 kmh 30.17 in1021.7 mb - 0.00 in0.0 mm 0.00 in0.0 mm
09:20 AM 52.0°F11.1°C 49.7°F9.8°C 92% 10.4 mph WSW16.7 kmh WSW 18.4 mph29.6 kmh 30.16 in1021.3 mb - 0.00 in0.0 mm 0.00 in0.0 mm
09:30 AM 51.9°F11.1°C 49.7°F9.8°C 92% 12.7 mph S20.4 kmh S 16.1 mph25.9 kmh 30.16 in1021.3 mb - 0.01 in0.3 mm 0.01 in0.3 mm
09:40 AM 51.8°F11.0°C 50.1°F10.1°C 94% 10.4 mph SSW16.7 kmh SSW 16.1 mph25.9 kmh 30.15 in1021.0 mb - 0.00 in0.0 mm 0.01 in0.3 mm
09:50 AM 51.7°F10.9°C 50.0°F10.0°C 94% 8.1 mph SSW13.0 kmh SSW 15.0 mph24.1 kmh 30.15 in1021.0 mb - 0.00 in0.0 mm 0.01 in0.3 mm
10:00 AM 51.7°F10.9°C 50.3°F10.2°C 95% 10.4 mph W16.7 kmh W 16.1 mph25.9 kmh 30.15 in1021.0 mb - 0.00 in0.0 mm 0.01 in0.3 mm
10:10 AM 51.7°F10.9°C 50.3°F10.2°C 95% 9.2 mph SSW14.8 kmh SSW 18.4 mph29.6 kmh 30.14 in1020.7 mb - 0.00 in0.0 mm 0.01 in0.3 mm
10:20 AM 51.7°F10.9°C 50.3°F10.2°C 95% 13.8 mph SW22.2 kmh SW 21.9 mph35.2 kmh 30.14 in1020.7 mb - 0.00 in0.0 mm 0.01 in0.3 mm
10:30 AM 51.8°F11.0°C 50.4°F10.2°C 95% 10.4 mph SW16.7 kmh SW 16.1 mph25.9 kmh 30.14 in1020.7 mb - 0.00 in0.0 mm 0.01 in0.3 mm
10:40 AM 52.0°F11.1°C 50.6°F10.3°C 95% 11.5 mph SW18.5 kmh SW 16.1 mph25.9 kmh 30.14 in1020.7 mb - 0.00 in0.0 mm 0.01 in0.3 mm
10:50 AM 52.1°F11.2°C 50.7°F10.4°C 95% 11.5 mph SW18.5 kmh SW 23.0 mph37.0 kmh 30.13 in1020.3 mb - 0.00 in0.0 mm 0.01 in0.3 mm
11:00 AM 52.1°F11.2°C 50.8°F10.4°C 95% 13.8 mph SSW22.2 kmh SSW 27.6 mph44.4 kmh 30.13 in1020.3 mb - 0.00 in0.0 mm 0.01 in0.3 mm
11:10 AM 52.2°F11.2°C 50.5°F10.3°C 94% 10.4 mph N16.7 kmh N 19.6 mph31.5 kmh 30.12 in1020.0 mb - 0.00 in0.0 mm 0.01 in0.3 mm
11:20 AM 52.2°F11.2°C 50.5°F10.3°C 94% 15.0 mph SW24.1 kmh SW 25.3 mph40.7 kmh 30.12 in1020.0 mb - 0.00 in0.0 mm 0.01 in0.3 mm
11:30 AM 51.9°F11.1°C 50.2°F10.1°C 94% 11.5 mph W18.5 kmh W 19.6 mph31.5 kmh 30.11 in1019.6 mb - 0.01 in0.3 mm 0.02 in0.5 mm
11:40 AM 51.5°F10.8°C 50.1°F10.1°C 95% 10.4 mph SW16.7 kmh SW 16.1 mph25.9 kmh 30.11 in1019.6 mb - 0.02 in0.5 mm 0.04 in1.0 mm
11:50 AM 51.3°F10.7°C 49.9°F9.9°C 95% 13.8 mph SW22.2 kmh SW 21.9 mph35.2 kmh 30.10 in1019.3 mb - 0.01 in0.3 mm 0.05 in1.3 mm
12:00 PM 51.2°F10.7°C 50.1°F10.1°C 96% 12.7 mph SW20.4 kmh SW 16.1 mph25.9 kmh 30.09 in1019.0 mb - 0.01 in0.3 mm 0.06 in1.5 mm
12:10 PM 51.2°F10.7°C 50.1°F10.1°C 96% 10.4 mph SW16.7 kmh SW 18.4 mph29.6 kmh 30.09 in1019.0 mb - 0.01 in0.3 mm 0.07 in1.8 mm
12:20 PM 51.2°F10.7°C 50.1°F10.1°C 96% 12.7 mph S20.4 kmh S 21.9 mph35.2 kmh 30.08 in1018.6 mb - 0.01 in0.3 mm 0.08 in2.0 mm
12:30 PM 51.3°F10.7°C 50.2°F10.1°C 96% 11.5 mph SW18.5 kmh SW 19.6 mph31.5 kmh 30.07 in1018.3 mb - 0.01 in0.3 mm 0.09 in2.3 mm
12:40 PM 51.3°F10.7°C 50.2°F10.1°C 96% 15.0 mph SW24.1 kmh SW 27.6 mph44.4 kmh 30.06 in1017.9 mb - 0.01 in0.3 mm 0.10 in2.5 mm
12:50 PM 51.3°F10.7°C 50.2°F10.1°C 96% 12.7 mph SW20.4 kmh SW 19.6 mph31.5 kmh 30.05 in1017.6 mb - 0.01 in0.3 mm 0.11 in2.8 mm
01:00 PM 51.3°F10.7°C 50.2°F10.1°C 96% 13.8 mph WSW22.2 kmh WSW 20.7 mph33.3 kmh 30.04 in1017.3 mb - 0.00 in0.0 mm 0.11 in2.8 mm
01:10 PM 51.3°F10.7°C 50.2°F10.1°C 96% 15.0 mph SW24.1 kmh SW 21.9 mph35.2 kmh 30.04 in1017.3 mb - 0.00 in0.0 mm 0.11 in2.8 mm
01:20 PM 51.4°F10.8°C 50.3°F10.2°C 96% 13.8 mph SW22.2 kmh SW 21.9 mph35.2 kmh 30.03 in1016.9 mb - 0.00 in0.0 mm 0.11 in2.8 mm
01:30 PM 51.4°F10.8°C 50.3°F10.2°C 96% 17.3 mph WSW27.8 kmh WSW 23.0 mph37.0 kmh 30.02 in1016.6 mb - 0.00 in0.0 mm 0.11 in2.8 mm
01:40 PM 51.5°F10.8°C 50.4°F10.2°C 96% 15.0 mph SW24.1 kmh SW 25.3 mph40.7 kmh 30.02 in1016.6 mb - 0.01 in0.3 mm 0.12 in3.0 mm
01:50 PM 51.5°F10.8°C 50.4°F10.2°C 96% 15.0 mph WSW24.1 kmh WSW 19.6 mph31.5 kmh 30.01 in1016.3 mb - 0.00 in0.0 mm 0.12 in3.0 mm
02:00 PM 51.6°F10.9°C 50.8°F10.4°C 97% 15.0 mph SW24.1 kmh SW 23.0 mph37.0 kmh 30.00 in1015.9 mb - 0.01 in0.3 mm 0.13 in3.3 mm
02:10 PM 51.6°F10.9°C 50.8°F10.4°C 97% 12.7 mph SSW20.4 kmh SSW 26.5 mph42.6 kmh 29.99 in1015.6 mb - 0.00 in0.0 mm 0.13 in3.3 mm
02:20 PM 51.7°F10.9°C 50.9°F10.5°C 97% 11.5 mph SSW18.5 kmh SSW 20.7 mph33.3 kmh 29.99 in1015.6 mb - 0.01 in0.3 mm 0.14 in3.6 mm
02:30 PM 51.8°F11.0°C 51.0°F10.6°C 97% 15.0 mph W24.1 kmh W 21.9 mph35.2 kmh 29.98 in1015.2 mb - 0.00 in0.0 mm 0.14 in3.6 mm
02:40 PM 51.8°F11.0°C 51.0°F10.6°C 97% 12.7 mph SSW20.4 kmh SSW 18.4 mph29.6 kmh 29.97 in1014.9 mb - 0.02 in0.5 mm 0.16 in4.1 mm
02:50 PM 51.9°F11.1°C 51.1°F10.6°C 97% 12.7 mph SW20.4 kmh SW 25.3 mph40.7 kmh 29.97 in1014.9 mb - 0.02 in0.5 mm 0.18 in4.6 mm
03:00 PM 51.9°F11.1°C 51.1°F10.6°C 97% 12.7 mph WSW20.4 kmh WSW 26.5 mph42.6 kmh 29.96 in1014.6 mb - 0.00 in0.0 mm 0.18 in4.6 mm
03:10 PM 52.1°F11.2°C 51.2°F10.7°C 97% 13.8 mph SW22.2 kmh SW 20.7 mph33.3 kmh 29.95 in1014.2 mb - 0.01 in0.3 mm 0.19 in4.8 mm
03:20 PM 52.1°F11.2°C 51.3°F10.7°C 97% 15.0 mph WSW24.1 kmh WSW 27.6 mph44.4 kmh 29.94 in1013.9 mb - 0.01 in0.3 mm 0.20 in5.1 mm
03:30 PM 52.2°F11.2°C 51.4°F10.8°C 97% 17.3 mph SW27.8 kmh SW 26.5 mph42.6 kmh 29.93 in1013.5 mb - 0.01 in0.3 mm 0.20 in5.1 mm
03:40 PM 52.3°F11.3°C 51.5°F10.8°C 97% 16.1 mph WSW25.9 kmh WSW 26.5 mph42.6 kmh 29.93 in1013.5 mb - 0.01 in0.3 mm 0.21 in5.3 mm
03:50 PM 52.4°F11.3°C 51.6°F10.9°C 97% 17.3 mph WSW27.8 kmh WSW 35.7 mph57.5 kmh 29.92 in1013.2 mb - 0.00 in0.0 mm 0.21 in5.3 mm
04:00 PM 52.5°F11.4°C 51.7°F10.9°C 97% 16.1 mph WSW25.9 kmh WSW 27.6 mph44.4 kmh 29.92 in1013.2 mb - 0.00 in0.0 mm 0.21 in5.3 mm
04:10 PM 52.6°F11.4°C 51.8°F11.0°C 97% 15.0 mph SW24.1 kmh SW 28.8 mph46.3 kmh 29.92 in1013.2 mb - 0.00 in0.0 mm 0.21 in5.3 mm
04:20 PM 52.6°F11.4°C 51.8°F11.0°C 97% 13.8 mph WSW22.2 kmh WSW 23.0 mph37.0 kmh 29.91 in1012.9 mb - 0.00 in0.0 mm 0.21 in5.3 mm
04:30 PM 52.7°F11.5°C 51.9°F11.1°C 97% 15.0 mph SW24.1 kmh SW 21.9 mph35.2 kmh 29.90 in1012.5 mb - 0.00 in0.0 mm 0.21 in5.3 mm
04:40 PM 52.7°F11.5°C 51.9°F11.1°C 97% 12.7 mph WSW20.4 kmh WSW 21.9 mph35.2 kmh 29.90 in1012.5 mb - 0.00 in0.0 mm 0.21 in5.3 mm
04:50 PM 52.8°F11.6°C 52.0°F11.1°C 97% 12.7 mph SW20.4 kmh SW 21.9 mph35.2 kmh 29.90 in1012.5 mb - 0.00 in0.0 mm 0.21 in5.3 mm
05:00 PM 52.8°F11.6°C 52.0°F11.1°C 97% 15.0 mph SSW24.1 kmh SSW 27.6 mph44.4 kmh 29.89 in1012.2 mb - 0.00 in0.0 mm 0.21 in5.3 mm
05:10 PM 52.9°F11.6°C 52.1°F11.2°C 97% 13.8 mph W22.2 kmh W 19.6 mph31.5 kmh 29.89 in1012.2 mb - 0.00 in0.0 mm 0.21 in5.3 mm
05:20 PM 53.1°F11.7°C 52.3°F11.3°C 97% 15.0 mph SW24.1 kmh SW 21.9 mph35.2 kmh 29.88 in1011.9 mb - 0.00 in0.0 mm 0.21 in5.3 mm
05:30 PM 53.1°F11.7°C 52.3°F11.3°C 97% 12.7 mph SW20.4 kmh SW 19.6 mph31.5 kmh 29.87 in1011.5 mb - 0.00 in0.0 mm 0.21 in5.3 mm
05:40 PM 53.2°F11.8°C 52.4°F11.3°C 97% 13.8 mph WSW22.2 kmh WSW 21.9 mph35.2 kmh 29.87 in1011.5 mb - 0.01 in0.3 mm 0.22 in5.6 mm
05:50 PM 53.3°F11.8°C 52.5°F11.4°C 97% 17.3 mph SW27.8 kmh SW 25.3 mph40.7 kmh 29.86 in1011.2 mb - 0.01 in0.3 mm 0.22 in5.6 mm
06:00 PM 53.3°F11.8°C 52.5°F11.4°C 97% 15.0 mph SW24.1 kmh SW 23.0 mph37.0 kmh 29.85 in1010.8 mb - 0.00 in0.0 mm 0.22 in5.6 mm
06:10 PM 53.4°F11.9°C 52.6°F11.4°C 97% 13.8 mph SW22.2 kmh SW 25.3 mph40.7 kmh 29.85 in1010.8 mb - 0.00 in0.0 mm 0.22 in5.6 mm
06:20 PM 53.4°F11.9°C 52.6°F11.4°C 97% 12.7 mph SW20.4 kmh SW 33.4 mph53.8 kmh 29.84 in1010.5 mb - 0.01 in0.3 mm 0.23 in5.8 mm
06:30 PM 53.5°F11.9°C 52.7°F11.5°C 97% 16.1 mph SSW25.9 kmh SSW 23.0 mph37.0 kmh 29.84 in1010.5 mb - 0.00 in0.0 mm 0.23 in5.8 mm
06:40 PM 53.6°F12.0°C 52.8°F11.6°C 97% 13.8 mph SW22.2 kmh SW 27.6 mph44.4 kmh 29.84 in1010.5 mb - 0.00 in0.0 mm 0.23 in5.8 mm
06:50 PM 53.6°F12.0°C 52.8°F11.6°C 97% 15.0 mph SW24.1 kmh SW 19.6 mph31.5 kmh 29.83 in1010.2 mb - 0.00 in0.0 mm 0.23 in5.8 mm
07:00 PM 53.7°F12.1°C 52.8°F11.6°C 97% 15.0 mph WSW24.1 kmh WSW 23.0 mph37.0 kmh 29.82 in1009.8 mb - 0.00 in0.0 mm 0.23 in5.8 mm
07:10 PM 53.7°F12.1°C 52.8°F11.6°C 97% 15.0 mph W24.1 kmh W 25.3 mph40.7 kmh 29.81 in1009.5 mb - 0.00 in0.0 mm 0.23 in5.8 mm
07:20 PM 53.7°F12.1°C 52.9°F11.6°C 97% 15.0 mph WSW24.1 kmh WSW 21.9 mph35.2 kmh 29.81 in1009.5 mb - 0.00 in0.0 mm 0.23 in5.8 mm
07:30 PM 53.8°F12.1°C 53.0°F11.7°C 97% 12.7 mph S20.4 kmh S 23.0 mph37.0 kmh 29.81 in1009.5 mb - 0.00 in0.0 mm 0.23 in5.8 mm
07:40 PM 53.8°F12.1°C 53.0°F11.7°C 97% 13.8 mph SSW22.2 kmh SSW 26.5 mph42.6 kmh 29.80 in1009.1 mb - 0.02 in0.5 mm 0.25 in6.4 mm
07:50 PM 53.9°F12.2°C 53.1°F11.7°C 97% 11.5 mph WSW18.5 kmh WSW 26.5 mph42.6 kmh 29.79 in1008.8 mb - 0.01 in0.3 mm 0.26 in6.6 mm
08:00 PM 54.0°F12.2°C 53.2°F11.8°C 97% 13.8 mph NW22.2 kmh NW 24.2 mph38.9 kmh 29.79 in1008.8 mb - 0.01 in0.3 mm 0.27 in6.9 mm
08:10 PM 54.0°F12.2°C 53.2°F11.8°C 97% 15.0 mph W24.1 kmh W 25.3 mph40.7 kmh 29.78 in1008.5 mb - 0.00 in0.0 mm 0.27 in6.9 mm
08:20 PM 54.1°F12.3°C 53.3°F11.8°C 97% 13.8 mph WSW22.2 kmh WSW 25.3 mph40.7 kmh 29.77 in1008.1 mb - 0.00 in0.0 mm 0.27 in6.9 mm
08:30 PM 54.2°F12.3°C 53.4°F11.9°C 97% 11.5 mph WSW18.5 kmh WSW 15.0 mph24.1 kmh 29.77 in1008.1 mb - 0.00 in0.0 mm 0.27 in6.9 mm
08:40 PM 54.3°F12.4°C 53.5°F11.9°C 97% 17.3 mph WSW27.8 kmh WSW 27.6 mph44.4 kmh 29.76 in1007.8 mb - 0.00 in0.0 mm 0.27 in6.9 mm
08:50 PM 54.3°F12.4°C 53.5°F11.9°C 97% 17.3 mph SSW27.8 kmh SSW 29.9 mph48.1 kmh 29.75 in1007.5 mb - 0.03 in0.8 mm 0.30 in7.6 mm
09:00 PM 54.4°F12.4°C 53.6°F12.0°C 97% 13.8 mph W22.2 kmh W 25.3 mph40.7 kmh 29.74 in1007.1 mb - 0.01 in0.3 mm 0.31 in7.9 mm
09:10 PM 54.5°F12.5°C 53.7°F12.1°C 97% 18.4 mph NW29.6 kmh NW 28.8 mph46.3 kmh 29.74 in1007.1 mb - 0.02 in0.5 mm 0.33 in8.4 mm
09:20 PM 54.6°F12.6°C 53.8°F12.1°C 97% 13.8 mph WSW22.2 kmh WSW 19.6 mph31.5 kmh 29.74 in1007.1 mb - 0.01 in0.3 mm 0.34 in8.6 mm
09:30 PM 54.7°F12.6°C 53.9°F12.2°C 97% 10.4 mph SW16.7 kmh SW 19.6 mph31.5 kmh 29.73 in1006.8 mb - 0.03 in0.8 mm 0.37 in9.4 mm
09:40 PM 54.5°F12.5°C 53.7°F12.1°C 97% 15.0 mph SW24.1 kmh SW 24.2 mph38.9 kmh 29.72 in1006.4 mb - 0.00 in0.0 mm 0.37 in9.4 mm
09:50 PM 54.5°F12.5°C 53.7°F12.1°C 97% 12.7 mph SE20.4 kmh SE 19.6 mph31.5 kmh 29.71 in1006.1 mb - 0.02 in0.5 mm 0.39 in9.9 mm
10:00 PM 54.5°F12.5°C 53.7°F12.1°C 97% 15.0 mph W24.1 kmh W 26.5 mph42.6 kmh 29.71 in1006.1 mb - 0.01 in0.3 mm 0.40 in10.2 mm
10:10 PM 54.5°F12.5°C 53.7°F12.1°C 97% 15.0 mph WSW24.1 kmh WSW 15.0 mph24.1 kmh 29.70 in1005.8 mb - 0.03 in0.8 mm 0.43 in10.9 mm
10:20 PM 54.5°F12.5°C 53.9°F12.2°C 98% 12.7 mph SW20.4 kmh SW 19.6 mph31.5 kmh 29.69 in1005.4 mb - 0.00 in0.0 mm 0.43 in10.9 mm
10:30 PM 54.5°F12.5°C 53.9°F12.2°C 98% 11.5 mph NW18.5 kmh NW 23.0 mph37.0 kmh 29.69 in1005.4 mb - 0.06 in1.5 mm 0.49 in12.4 mm
10:40 PM 54.5°F12.5°C 53.9°F12.2°C 98% 16.1 mph W25.9 kmh W 25.3 mph40.7 kmh 29.68 in1005.1 mb - 0.01 in0.3 mm 0.50 in12.7 mm
10:50 PM 54.5°F12.5°C 54.0°F12.2°C 98% 15.0 mph WSW24.1 kmh WSW 21.9 mph35.2 kmh 29.68 in1005.1 mb - 0.00 in0.0 mm 0.50 in12.7 mm
11:00 PM 54.5°F12.5°C 53.9°F12.2°C 98% 11.5 mph WSW18.5 kmh WSW 19.6 mph31.5 kmh 29.68 in1005.1 mb - 0.00 in0.0 mm 0.50 in12.7 mm
11:10 PM 54.5°F12.5°C 53.9°F12.2°C 98% 13.8 mph W22.2 kmh W 21.9 mph35.2 kmh 29.67 in1004.7 mb - 0.00 in0.0 mm 0.50 in12.7 mm
11:20 PM 54.5°F12.5°C 53.9°F12.2°C 98% 13.8 mph WSW22.2 kmh WSW 28.8 mph46.3 kmh 29.66 in1004.4 mb - 0.00 in0.0 mm 0.50 in12.7 mm
11:30 PM 54.4°F12.4°C 53.8°F12.1°C 98% 15.0 mph WNW24.1 kmh WNW 29.9 mph48.1 kmh 29.65 in1004.1 mb - 0.00 in0.0 mm 0.50 in12.7 mm
11:40 PM 54.5°F12.5°C 53.9°F12.2°C 98% 15.0 mph WSW24.1 kmh WSW 23.0 mph37.0 kmh 29.64 in1003.7 mb - 0.00 in0.0 mm 0.50 in12.7 mm
11:50 PM 54.4°F12.4°C 53.9°F12.2°C 98% 12.7 mph WSW20.4 kmh WSW 21.9 mph35.2 kmh 29.65 in1004.1 mb - 0.00 in0.0 mm 0.50 in12.7 mm